sensor_id;sensor_type;location;lat;lon;timestamp;pressure;altitude;pressure_sealevel;temperature;humidity
66703;BME280;60933;46.398;-63.798;2023-04-05T00:02:07;101886.19;;;1.71;68.92
66703;BME280;60933;46.398;-63.798;2023-04-05T00:04:35;101873.75;;;1.52;68.90
66703;BME280;60933;46.398;-63.798;2023-04-05T00:07:04;101889.28;;;1.61;69.24
66703;BME280;60933;46.398;-63.798;2023-04-05T00:09:32;101900.09;;;1.54;68.73
66703;BME280;60933;46.398;-63.798;2023-04-05T00:12:01;101904.13;;;1.47;69.18
66703;BME280;60933;46.398;-63.798;2023-04-05T00:14:27;101893.72;;;1.39;69.12
66703;BME280;60933;46.398;-63.798;2023-04-05T00:16:53;101897.84;;;1.36;68.96
66703;BME280;60933;46.398;-63.798;2023-04-05T00:19:19;101905.25;;;1.28;69.19
66703;BME280;60933;46.398;-63.798;2023-04-05T00:21:47;101908.41;;;1.21;68.94
66703;BME280;60933;46.398;-63.798;2023-04-05T00:24:13;101904.81;;;1.16;69.43
66703;BME280;60933;46.398;-63.798;2023-04-05T00:26:40;101904.63;;;1.09;68.97
66703;BME280;60933;46.398;-63.798;2023-04-05T00:29:08;101897.81;;;1.08;68.81
66703;BME280;60933;46.398;-63.798;2023-04-05T00:31:34;101913.84;;;1.06;69.24
66703;BME280;60933;46.398;-63.798;2023-04-05T00:34:00;101906.03;;;1.01;69.06
66703;BME280;60933;46.398;-63.798;2023-04-05T00:36:26;101918.84;;;1.03;68.81
66703;BME280;60933;46.398;-63.798;2023-04-05T00:38:54;101916.91;;;0.96;68.32
66703;BME280;60933;46.398;-63.798;2023-04-05T00:41:20;101919.38;;;0.94;68.25
66703;BME280;60933;46.398;-63.798;2023-04-05T00:43:46;101919.16;;;0.88;68.69
66703;BME280;60933;46.398;-63.798;2023-04-05T00:46:12;101936.03;;;0.86;68.69
66703;BME280;60933;46.398;-63.798;2023-04-05T00:48:38;101917.03;;;0.74;68.60
66703;BME280;60933;46.398;-63.798;2023-04-05T00:51:05;101931.50;;;0.77;69.14
66703;BME280;60933;46.398;-63.798;2023-04-05T00:53:34;101934.09;;;0.78;68.75
66703;BME280;60933;46.398;-63.798;2023-04-05T00:56:01;101929.53;;;0.68;68.74
66703;BME280;60933;46.398;-63.798;2023-04-05T00:58:27;101933.94;;;0.74;68.55
66703;BME280;60933;46.398;-63.798;2023-04-05T01:01:12;101910.75;;;0.65;68.99
66703;BME280;60933;46.398;-63.798;2023-04-05T01:03:45;101932.06;;;0.68;68.88
66703;BME280;60933;46.398;-63.798;2023-04-05T01:09:17;101937.78;;;0.62;68.67
66703;BME280;60933;46.398;-63.798;2023-04-05T01:11:48;101940.34;;;0.62;68.75
66703;BME280;60933;46.398;-63.798;2023-04-05T01:14:17;101944.53;;;0.62;68.74
66703;BME280;60933;46.398;-63.798;2023-04-05T01:16:43;101949.53;;;0.59;68.82
66703;BME280;60933;46.398;-63.798;2023-04-05T01:19:10;101949.41;;;0.56;68.88
66703;BME280;60933;46.398;-63.798;2023-04-05T01:22:10;101951.94;;;0.56;68.84
66703;BME280;60933;46.398;-63.798;2023-04-05T01:30:38;101976.50;;;0.55;69.49
66703;BME280;60933;46.398;-63.798;2023-04-05T01:38:18;101990.88;;;0.55;69.09
66703;BME280;60933;46.398;-63.798;2023-04-05T01:40:47;101993.34;;;0.53;68.92
66703;BME280;60933;46.398;-63.798;2023-04-05T01:43:15;101985.56;;;0.49;68.56
66703;BME280;60933;46.398;-63.798;2023-04-05T01:45:42;101999.28;;;0.54;68.37
66703;BME280;60933;46.398;-63.798;2023-04-05T01:48:08;102011.03;;;0.50;68.66
66703;BME280;60933;46.398;-63.798;2023-04-05T01:50:35;102004.31;;;0.52;68.90
66703;BME280;60933;46.398;-63.798;2023-04-05T01:53:01;102029.78;;;0.54;68.44
66703;BME280;60933;46.398;-63.798;2023-04-05T01:55:27;102018.75;;;0.53;68.65
66703;BME280;60933;46.398;-63.798;2023-04-05T01:57:54;102027.38;;;0.57;68.16
66703;BME280;60933;46.398;-63.798;2023-04-05T02:00:23;102033.25;;;0.56;68.41
66703;BME280;60933;46.398;-63.798;2023-04-05T02:02:50;102027.19;;;0.52;68.51
66703;BME280;60933;46.398;-63.798;2023-04-05T02:05:16;102044.94;;;0.51;68.63
66703;BME280;60933;46.398;-63.798;2023-04-05T02:07:42;102049.88;;;0.47;69.09
66703;BME280;60933;46.398;-63.798;2023-04-05T02:10:08;102053.13;;;0.43;69.01
66703;BME280;60933;46.398;-63.798;2023-04-05T02:12:34;102059.06;;;0.44;69.10
66703;BME280;60933;46.398;-63.798;2023-04-05T02:15:01;102064.84;;;0.40;69.80
66703;BME280;60933;46.398;-63.798;2023-04-05T02:17:27;102072.66;;;0.44;68.93
66703;BME280;60933;46.398;-63.798;2023-04-05T02:20:01;102077.59;;;0.41;69.63
66703;BME280;60933;46.398;-63.798;2023-04-05T02:22:27;102082.72;;;0.43;69.60
66703;BME280;60933;46.398;-63.798;2023-04-05T02:24:54;102085.22;;;0.41;70.05
66703;BME280;60933;46.398;-63.798;2023-04-05T02:27:20;102086.91;;;0.41;69.69
66703;BME280;60933;46.398;-63.798;2023-04-05T02:29:46;102091.13;;;0.40;70.67
66703;BME280;60933;46.398;-63.798;2023-04-05T02:32:12;102097.88;;;0.40;70.05
66703;BME280;60933;46.398;-63.798;2023-04-05T02:34:38;102102.22;;;0.42;69.59
66703;BME280;60933;46.398;-63.798;2023-04-05T02:37:06;102110.00;;;0.47;69.49
66703;BME280;60933;46.398;-63.798;2023-04-05T02:39:32;102104.97;;;0.49;69.55
66703;BME280;60933;46.398;-63.798;2023-04-05T02:41:59;102112.72;;;0.52;69.57
66703;BME280;60933;46.398;-63.798;2023-04-05T02:44:25;102112.84;;;0.55;69.29
66703;BME280;60933;46.398;-63.798;2023-04-05T02:46:51;102123.97;;;0.58;69.30
66703;BME280;60933;46.398;-63.798;2023-04-05T02:49:17;102131.78;;;0.63;68.66
66703;BME280;60933;46.398;-63.798;2023-04-05T02:51:43;102135.22;;;0.63;68.67
66703;BME280;60933;46.398;-63.798;2023-04-05T02:54:09;102135.25;;;0.65;68.19
66703;BME280;60933;46.398;-63.798;2023-04-05T02:56:35;102139.72;;;0.71;68.27
66703;BME280;60933;46.398;-63.798;2023-04-05T02:59:01;102139.81;;;0.74;67.72
66703;BME280;60933;46.398;-63.798;2023-04-05T03:01:28;102143.25;;;0.74;68.18
66703;BME280;60933;46.398;-63.798;2023-04-05T03:03:57;102147.34;;;0.71;68.41
66703;BME280;60933;46.398;-63.798;2023-04-05T03:06:23;102149.94;;;0.72;68.85
66703;BME280;60933;46.398;-63.798;2023-04-05T03:08:51;102158.28;;;0.68;69.16
66703;BME280;60933;46.398;-63.798;2023-04-05T03:11:18;102158.13;;;0.65;68.89
66703;BME280;60933;46.398;-63.798;2023-04-05T03:13:44;102157.19;;;0.63;69.21
66703;BME280;60933;46.398;-63.798;2023-04-05T03:16:11;102170.00;;;0.65;68.89
66703;BME280;60933;46.398;-63.798;2023-04-05T03:18:37;102170.72;;;0.62;68.19
66703;BME280;60933;46.398;-63.798;2023-04-05T03:21:03;102178.41;;;0.63;68.22
66703;BME280;60933;46.398;-63.798;2023-04-05T03:23:30;102167.09;;;0.55;67.74
66703;BME280;60933;46.398;-63.798;2023-04-05T03:28:23;102187.84;;;0.66;62.82
66703;BME280;60933;46.398;-63.798;2023-04-05T03:30:50;102209.16;;;0.70;62.71
66703;BME280;60933;46.398;-63.798;2023-04-05T03:33:17;102209.66;;;0.61;63.73
66703;BME280;60933;46.398;-63.798;2023-04-05T03:35:43;102221.44;;;0.59;64.93
66703;BME280;60933;46.398;-63.798;2023-04-05T03:38:09;102233.91;;;0.53;64.47
66703;BME280;60933;46.398;-63.798;2023-04-05T03:40:36;102225.09;;;0.44;64.30
66703;BME280;60933;46.398;-63.798;2023-04-05T03:43:02;102234.19;;;0.39;64.65
66703;BME280;60933;46.398;-63.798;2023-04-05T03:45:27;102251.06;;;0.37;64.19
66703;BME280;60933;46.398;-63.798;2023-04-05T03:48:00;102242.09;;;0.26;63.93
66703;BME280;60933;46.398;-63.798;2023-04-05T03:50:26;102259.78;;;0.23;64.34
66703;BME280;60933;46.398;-63.798;2023-04-05T03:52:52;102261.22;;;0.18;63.98
66703;BME280;60933;46.398;-63.798;2023-04-05T03:55:18;102262.56;;;0.09;64.70
66703;BME280;60933;46.398;-63.798;2023-04-05T03:57:47;102264.00;;;0.03;64.86
66703;BME280;60933;46.398;-63.798;2023-04-05T04:00:13;102283.56;;;0.05;63.91
66703;BME280;60933;46.398;-63.798;2023-04-05T04:02:44;102285.97;;;0.02;63.99
66703;BME280;60933;46.398;-63.798;2023-04-05T04:05:11;102288.25;;;-0.04;64.42
66703;BME280;60933;46.398;-63.798;2023-04-05T04:07:37;102295.44;;;-0.13;62.97
66703;BME280;60933;46.398;-63.798;2023-04-05T04:10:04;102296.78;;;-0.22;62.78
66703;BME280;60933;46.398;-63.798;2023-04-05T04:12:33;102306.72;;;-0.26;59.30
66703;BME280;60933;46.398;-63.798;2023-04-05T04:15:01;102302.25;;;-0.32;60.22
66703;BME280;60933;46.398;-63.798;2023-04-05T04:17:28;102313.72;;;-0.40;59.39
66703;BME280;60933;46.398;-63.798;2023-04-05T04:19:55;102310.03;;;-0.47;58.38
66703;BME280;60933;46.398;-63.798;2023-04-05T04:22:21;102296.78;;;-0.59;58.39
66703;BME280;60933;46.398;-63.798;2023-04-05T04:24:48;102302.59;;;-0.62;57.15
66703;BME280;60933;46.398;-63.798;2023-04-05T04:27:18;102306.72;;;-0.64;56.30
66703;BME280;60933;46.398;-63.798;2023-04-05T04:29:46;102310.84;;;-0.66;56.38
66703;BME280;60933;46.398;-63.798;2023-04-05T04:32:14;102314.84;;;-0.71;56.30
66703;BME280;60933;46.398;-63.798;2023-04-05T04:34:41;102322.28;;;-0.74;55.62
66703;BME280;60933;46.398;-63.798;2023-04-05T04:37:15;102311.00;;;-0.81;56.78
66703;BME280;60933;46.398;-63.798;2023-04-05T04:39:47;102302.38;;;-0.85;55.44
66703;BME280;60933;46.398;-63.798;2023-04-05T04:42:14;102319.31;;;-0.84;55.23
66703;BME280;60933;46.398;-63.798;2023-04-05T04:44:44;102323.31;;;-0.89;55.43
66703;BME280;60933;46.398;-63.798;2023-04-05T04:47:11;102318.97;;;-0.91;55.65
66703;BME280;60933;46.398;-63.798;2023-04-05T04:49:42;102343.31;;;-0.95;56.39
66703;BME280;60933;46.398;-63.798;2023-04-05T04:52:08;102349.09;;;-0.98;55.46
66703;BME280;60933;46.398;-63.798;2023-04-05T04:54:35;102348.72;;;-1.05;56.07
66703;BME280;60933;46.398;-63.798;2023-04-05T04:57:02;102356.31;;;-1.05;55.93
66703;BME280;60933;46.398;-63.798;2023-04-05T04:59:28;102356.09;;;-1.10;55.10
66703;BME280;60933;46.398;-63.798;2023-04-05T05:01:54;102359.22;;;-1.16;55.08
66703;BME280;60933;46.398;-63.798;2023-04-05T05:04:20;102358.19;;;-1.19;55.35
66703;BME280;60933;46.398;-63.798;2023-04-05T05:06:51;102365.41;;;-1.27;54.66
66703;BME280;60933;46.398;-63.798;2023-04-05T05:09:17;102370.22;;;-1.32;55.56
66703;BME280;60933;46.398;-63.798;2023-04-05T05:11:42;102385.19;;;-1.36;55.78
66703;BME280;60933;46.398;-63.798;2023-04-05T05:14:09;102386.56;;;-1.43;55.49
66703;BME280;60933;46.398;-63.798;2023-04-05T05:16:34;102375.31;;;-1.48;55.38
66703;BME280;60933;46.398;-63.798;2023-04-05T05:19:00;102382.59;;;-1.54;55.99
66703;BME280;60933;46.398;-63.798;2023-04-05T05:21:26;102388.31;;;-1.58;55.95
66703;BME280;60933;46.398;-63.798;2023-04-05T05:23:52;102375.09;;;-1.69;55.99
66703;BME280;60933;46.398;-63.798;2023-04-05T05:26:18;102399.53;;;-1.70;55.73
66703;BME280;60933;46.398;-63.798;2023-04-05T05:28:44;102404.44;;;-1.73;56.24
66703;BME280;60933;46.398;-63.798;2023-04-05T05:31:11;102395.72;;;-1.78;55.59
66703;BME280;60933;46.398;-63.798;2023-04-05T05:33:38;102398.78;;;-1.84;55.22
66703;BME280;60933;46.398;-63.798;2023-04-05T05:36:05;102398.41;;;-1.92;54.74
66703;BME280;60933;46.398;-63.798;2023-04-05T05:38:31;102406.00;;;-1.92;54.76
66703;BME280;60933;46.398;-63.798;2023-04-05T05:40:57;102438.66;;;-1.96;54.89
66703;BME280;60933;46.398;-63.798;2023-04-05T05:43:23;102421.47;;;-2.02;52.71
66703;BME280;60933;46.398;-63.798;2023-04-05T05:45:49;102403.34;;;-2.10;51.89
66703;BME280;60933;46.398;-63.798;2023-04-05T05:48:17;102412.44;;;-2.13;53.02
66703;BME280;60933;46.398;-63.798;2023-04-05T05:50:44;102424.66;;;-2.21;51.49
66703;BME280;60933;46.398;-63.798;2023-04-05T05:53:13;102422.50;;;-2.30;49.59
66703;BME280;60933;46.398;-63.798;2023-04-05T05:55:39;102416.41;;;-2.33;48.82
66703;BME280;60933;46.398;-63.798;2023-04-05T05:58:06;102427.31;;;-2.34;49.88
66703;BME280;60933;46.398;-63.798;2023-04-05T06:00:32;102444.16;;;-2.35;48.32
66703;BME280;60933;46.398;-63.798;2023-04-05T06:02:58;102431.94;;;-2.42;49.47
66703;BME280;60933;46.398;-63.798;2023-04-05T06:05:23;102434.38;;;-2.44;48.58
66703;BME280;60933;46.398;-63.798;2023-04-05T06:07:50;102435.34;;;-2.57;48.63
66703;BME280;60933;46.398;-63.798;2023-04-05T06:10:17;102446.34;;;-2.56;50.20
66703;BME280;60933;46.398;-63.798;2023-04-05T06:12:44;102468.06;;;-2.60;50.06
66703;BME280;60933;46.398;-63.798;2023-04-05T06:15:10;102462.91;;;-2.61;49.61
66703;BME280;60933;46.398;-63.798;2023-04-05T06:17:36;102454.19;;;-2.66;49.78
66703;BME280;60933;46.398;-63.798;2023-04-05T06:20:08;102466.75;;;-2.68;50.22
66703;BME280;60933;46.398;-63.798;2023-04-05T06:22:37;102465.69;;;-2.72;50.13
66703;BME280;60933;46.398;-63.798;2023-04-05T06:25:06;102473.00;;;-2.76;50.89
66703;BME280;60933;46.398;-63.798;2023-04-05T06:27:33;102472.03;;;-2.78;50.23
66703;BME280;60933;46.398;-63.798;2023-04-05T06:29:59;102488.69;;;-2.82;50.53
66703;BME280;60933;46.398;-63.798;2023-04-05T06:32:25;102493.75;;;-2.82;51.28
66703;BME280;60933;46.398;-63.798;2023-04-05T06:34:51;102462.59;;;-3.11;51.00
66703;BME280;60933;46.398;-63.798;2023-04-05T06:37:18;102493.03;;;-2.94;49.52
66703;BME280;60933;46.398;-63.798;2023-04-05T06:39:43;102497.59;;;-2.89;49.06
66703;BME280;60933;46.398;-63.798;2023-04-05T06:42:10;102504.38;;;-2.88;49.29
66703;BME280;60933;46.398;-63.798;2023-04-05T06:44:36;102487.50;;;-3.02;49.77
66703;BME280;60933;46.398;-63.798;2023-04-05T06:47:01;102504.97;;;-2.92;49.98
66703;BME280;60933;46.398;-63.798;2023-04-05T06:49:29;102502.94;;;-2.97;49.93
66703;BME280;60933;46.398;-63.798;2023-04-05T06:51:56;102509.19;;;-3.06;50.21
66703;BME280;60933;46.398;-63.798;2023-04-05T06:54:22;102509.03;;;-3.09;50.29
66703;BME280;60933;46.398;-63.798;2023-04-05T06:56:50;102512.34;;;-3.10;51.12
66703;BME280;60933;46.398;-63.798;2023-04-05T06:59:16;102539.16;;;-3.12;50.07
66703;BME280;60933;46.398;-63.798;2023-04-05T07:01:44;102527.03;;;-3.18;51.06
66703;BME280;60933;46.398;-63.798;2023-04-05T07:04:11;102532.00;;;-3.19;51.27
66703;BME280;60933;46.398;-63.798;2023-04-05T07:06:37;102537.72;;;-3.22;51.53
66703;BME280;60933;46.398;-63.798;2023-04-05T07:09:03;102538.44;;;-3.24;50.44
66703;BME280;60933;46.398;-63.798;2023-04-05T07:11:30;102550.09;;;-3.26;51.50
66703;BME280;60933;46.398;-63.798;2023-04-05T07:13:58;102566.78;;;-3.28;50.98
66703;BME280;60933;46.398;-63.798;2023-04-05T07:16:24;102565.72;;;-3.32;50.42
66703;BME280;60933;46.398;-63.798;2023-04-05T07:18:51;102564.94;;;-3.31;50.55
66703;BME280;60933;46.398;-63.798;2023-04-05T07:21:17;102572.44;;;-3.32;50.94
66703;BME280;60933;46.398;-63.798;2023-04-05T07:23:43;102575.75;;;-3.34;51.19
66703;BME280;60933;46.398;-63.798;2023-04-05T07:26:09;102579.66;;;-3.39;51.09
66703;BME280;60933;46.398;-63.798;2023-04-05T07:28:36;102592.28;;;-3.39;51.25
66703;BME280;60933;46.398;-63.798;2023-04-05T07:31:04;102587.03;;;-3.42;51.56
66703;BME280;60933;46.398;-63.798;2023-04-05T07:33:30;102589.38;;;-3.45;51.07
66703;BME280;60933;46.398;-63.798;2023-04-05T07:35:56;102590.16;;;-3.46;51.16
66703;BME280;60933;46.398;-63.798;2023-04-05T07:38:22;102575.28;;;-3.55;52.08
66703;BME280;60933;46.398;-63.798;2023-04-05T07:40:49;102594.00;;;-3.51;51.88
66703;BME280;60933;46.398;-63.798;2023-04-05T07:43:17;102604.81;;;-3.54;52.30
66703;BME280;60933;46.398;-63.798;2023-04-05T07:45:43;102608.00;;;-3.56;52.20
66703;BME280;60933;46.398;-63.798;2023-04-05T07:48:09;102608.59;;;-3.60;52.23
66703;BME280;60933;46.398;-63.798;2023-04-05T07:50:35;102620.25;;;-3.62;52.37
66703;BME280;60933;46.398;-63.798;2023-04-05T07:53:04;102621.03;;;-3.63;52.81
66703;BME280;60933;46.398;-63.798;2023-04-05T07:55:30;102621.72;;;-3.66;52.84
66703;BME280;60933;46.398;-63.798;2023-04-05T07:57:56;102634.13;;;-3.69;52.46
66703;BME280;60933;46.398;-63.798;2023-04-05T08:00:23;102634.81;;;-3.72;53.16
66703;BME280;60933;46.398;-63.798;2023-04-05T08:02:49;102642.16;;;-3.75;52.70
66703;BME280;60933;46.398;-63.798;2023-04-05T08:05:15;102637.50;;;-3.82;51.79
66703;BME280;60933;46.398;-63.798;2023-04-05T08:07:41;102656.53;;;-3.74;52.03
66703;BME280;60933;46.398;-63.798;2023-04-05T08:10:07;102658.09;;;-3.76;52.07
66703;BME280;60933;46.398;-63.798;2023-04-05T08:12:34;102653.72;;;-3.78;52.46
66703;BME280;60933;46.398;-63.798;2023-04-05T08:15:00;102674.56;;;-3.81;52.29
66703;BME280;60933;46.398;-63.798;2023-04-05T08:17:26;102670.22;;;-3.84;52.85
66703;BME280;60933;46.398;-63.798;2023-04-05T08:19:53;102672.66;;;-3.85;52.82
66703;BME280;60933;46.398;-63.798;2023-04-05T08:22:20;102668.94;;;-3.90;53.16
66703;BME280;60933;46.398;-63.798;2023-04-05T08:24:46;102671.19;;;-3.95;52.85
66703;BME280;60933;46.398;-63.798;2023-04-05T08:27:12;102679.59;;;-3.94;53.75
66703;BME280;60933;46.398;-63.798;2023-04-05T08:29:37;102688.72;;;-3.97;53.46
66703;BME280;60933;46.398;-63.798;2023-04-05T08:32:04;102681.91;;;-3.98;53.79
66703;BME280;60933;46.398;-63.798;2023-04-05T08:34:30;102693.56;;;-4.00;53.49
66703;BME280;60933;46.398;-63.798;2023-04-05T08:36:59;102712.38;;;-4.08;53.62
66703;BME280;60933;46.398;-63.798;2023-04-05T08:39:25;102710.25;;;-4.02;52.57
66703;BME280;60933;46.398;-63.798;2023-04-05T08:42:15;102702.00;;;-3.99;52.65
66703;BME280;60933;46.398;-63.798;2023-04-05T08:44:39;102723.22;;;-4.09;53.27
66703;BME280;60933;46.398;-63.798;2023-04-05T08:47:07;102715.84;;;-4.06;52.88
66703;BME280;60933;46.398;-63.798;2023-04-05T08:49:34;102731.78;;;-4.07;53.03
66703;BME280;60933;46.398;-63.798;2023-04-05T08:52:00;102729.25;;;-4.07;52.40
66703;BME280;60933;46.398;-63.798;2023-04-05T08:54:26;102735.84;;;-4.09;52.26
66703;BME280;60933;46.398;-63.798;2023-04-05T08:56:57;102744.09;;;-4.11;52.83
66703;BME280;60933;46.398;-63.798;2023-04-05T08:59:24;102740.56;;;-4.14;53.06
66703;BME280;60933;46.398;-63.798;2023-04-05T09:01:51;102737.50;;;-4.21;52.98
66703;BME280;60933;46.398;-63.798;2023-04-05T09:04:22;102747.59;;;-4.21;53.73
66703;BME280;60933;46.398;-63.798;2023-04-05T09:06:54;102759.94;;;-4.26;53.83
66703;BME280;60933;46.398;-63.798;2023-04-05T09:09:23;102756.50;;;-4.26;53.77
66703;BME280;60933;46.398;-63.798;2023-04-05T09:11:50;102755.53;;;-4.29;53.61
66703;BME280;60933;46.398;-63.798;2023-04-05T09:14:16;102754.75;;;-4.27;54.12
66703;BME280;60933;46.398;-63.798;2023-04-05T09:16:43;102761.38;;;-4.30;53.72
66703;BME280;60933;46.398;-63.798;2023-04-05T09:19:10;102763.88;;;-4.30;54.03
66703;BME280;60933;46.398;-63.798;2023-04-05T09:27:06;102778.38;;;-4.39;54.01
66703;BME280;60933;46.398;-63.798;2023-04-05T09:29:32;102773.78;;;-4.45;53.83
66703;BME280;60933;46.398;-63.798;2023-04-05T09:32:00;102790.00;;;-4.41;53.69
66703;BME280;60933;46.398;-63.798;2023-04-05T09:34:30;102788.22;;;-4.42;54.32
66703;BME280;60933;46.398;-63.798;2023-04-05T09:37:01;102786.28;;;-4.46;53.45
66703;BME280;60933;46.398;-63.798;2023-04-05T09:39:31;102777.94;;;-4.45;53.80
66703;BME280;60933;46.398;-63.798;2023-04-05T09:42:06;102774.22;;;-4.50;53.36
66703;BME280;60933;46.398;-63.798;2023-04-05T09:45:11;102793.09;;;-4.45;53.55
66703;BME280;60933;46.398;-63.798;2023-04-05T09:47:37;102803.03;;;-4.47;53.77
66703;BME280;60933;46.398;-63.798;2023-04-05T09:50:17;102778.50;;;-4.61;53.67
66703;BME280;60933;46.398;-63.798;2023-04-05T09:52:44;102788.25;;;-4.54;53.86
66703;BME280;60933;46.398;-63.798;2023-04-05T09:55:11;102807.22;;;-4.47;54.26
66703;BME280;60933;46.398;-63.798;2023-04-05T09:57:38;102812.03;;;-4.50;54.20
66703;BME280;60933;46.398;-63.798;2023-04-05T10:00:15;102823.09;;;-4.48;54.19
66703;BME280;60933;46.398;-63.798;2023-04-05T10:02:42;102829.91;;;-4.47;54.28
66703;BME280;60933;46.398;-63.798;2023-04-05T10:05:08;102841.09;;;-4.43;53.61
66703;BME280;60933;46.398;-63.798;2023-04-05T10:07:43;102844.59;;;-4.41;53.53
66703;BME280;60933;46.398;-63.798;2023-04-05T10:10:11;102846.56;;;-4.37;53.09
66703;BME280;60933;46.398;-63.798;2023-04-05T10:12:39;102834.94;;;-4.35;53.90
66703;BME280;60933;46.398;-63.798;2023-04-05T10:15:10;102855.31;;;-4.32;53.68
66703;BME280;60933;46.398;-63.798;2023-04-05T10:20:15;102866.03;;;-4.23;53.87
66703;BME280;60933;46.398;-63.798;2023-04-05T10:23:03;102852.91;;;-4.19;54.21
66703;BME280;60933;46.398;-63.798;2023-04-05T10:26:07;102861.66;;;-4.14;53.35
66703;BME280;60933;46.398;-63.798;2023-04-05T10:28:35;102877.00;;;-4.10;53.74
66703;BME280;60933;46.398;-63.798;2023-04-05T10:33:43;102876.34;;;-4.08;53.64
66703;BME280;60933;46.398;-63.798;2023-04-05T10:36:21;102906.03;;;-4.04;53.65
66703;BME280;60933;46.398;-63.798;2023-04-05T10:39:03;102920.75;;;-3.98;53.20
66703;BME280;60933;46.398;-63.798;2023-04-05T10:41:35;102912.09;;;-4.02;53.58
66703;BME280;60933;46.398;-63.798;2023-04-05T10:44:03;102932.69;;;-3.95;53.27
66703;BME280;60933;46.398;-63.798;2023-04-05T10:46:30;102922.72;;;-4.06;53.15
66703;BME280;60933;46.398;-63.798;2023-04-05T10:51:33;102962.09;;;-3.84;52.82
66703;BME280;60933;46.398;-63.798;2023-04-05T10:53:59;102960.44;;;-3.84;52.67
66703;BME280;60933;46.398;-63.798;2023-04-05T10:56:25;102976.75;;;-3.78;53.29
66703;BME280;60933;46.398;-63.798;2023-04-05T10:58:53;102980.59;;;-3.72;53.65
66703;BME280;60933;46.398;-63.798;2023-04-05T11:01:20;102972.47;;;-3.68;52.85
66703;BME280;60933;46.398;-63.798;2023-04-05T11:03:48;102968.41;;;-3.66;52.18
66703;BME280;60933;46.398;-63.798;2023-04-05T11:06:22;102978.94;;;-3.59;52.84
66703;BME280;60933;46.398;-63.798;2023-04-05T11:08:57;102984.19;;;-3.56;52.85
66703;BME280;60933;46.398;-63.798;2023-04-05T11:11:23;102996.25;;;-3.52;53.04
66703;BME280;60933;46.398;-63.798;2023-04-05T11:13:56;102989.66;;;-3.50;52.83
66703;BME280;60933;46.398;-63.798;2023-04-05T11:16:37;102987.56;;;-3.44;52.71
66703;BME280;60933;46.398;-63.798;2023-04-05T11:19:03;102987.22;;;-3.37;53.17
66703;BME280;60933;46.398;-63.798;2023-04-05T11:21:30;102983.06;;;-3.36;53.40
66703;BME280;60933;46.398;-63.798;2023-04-05T11:26:32;102982.25;;;-3.23;53.04
66703;BME280;60933;46.398;-63.798;2023-04-05T11:28:59;102990.78;;;-3.21;52.84
66703;BME280;60933;46.398;-63.798;2023-04-05T11:31:24;102992.94;;;-3.14;53.93
66703;BME280;60933;46.398;-63.798;2023-04-05T11:33:58;102992.75;;;-3.17;52.85
66703;BME280;60933;46.398;-63.798;2023-04-05T11:36:43;103002.28;;;-3.13;52.51
66703;BME280;60933;46.398;-63.798;2023-04-05T11:41:59;103036.47;;;-3.18;53.00
66703;BME280;60933;46.398;-63.798;2023-04-05T11:44:27;103033.06;;;-3.07;52.60
66703;BME280;60933;46.398;-63.798;2023-04-05T11:46:54;103044.75;;;-2.95;52.81
66703;BME280;60933;46.398;-63.798;2023-04-05T11:49:21;103032.34;;;-2.92;52.02
66703;BME280;60933;46.398;-63.798;2023-04-05T11:51:51;103016.41;;;-2.91;51.42
66703;BME280;60933;46.398;-63.798;2023-04-05T11:54:31;103039.19;;;-2.78;52.18
66703;BME280;60933;46.398;-63.798;2023-04-05T11:56:58;103035.09;;;-2.76;50.81
66703;BME280;60933;46.398;-63.798;2023-04-05T11:59:31;103046.09;;;-2.75;50.35
66703;BME280;60933;46.398;-63.798;2023-04-05T12:02:01;103035.59;;;-2.81;50.40
66703;BME280;60933;46.398;-63.798;2023-04-05T12:04:30;103019.91;;;-2.76;51.41
66703;BME280;60933;46.398;-63.798;2023-04-05T12:12:23;102992.97;;;-2.50;50.25
66703;BME280;60933;46.398;-63.798;2023-04-05T12:14:49;103011.06;;;-2.44;50.67
66703;BME280;60933;46.398;-63.798;2023-04-05T12:17:15;103024.69;;;-2.42;50.04
66703;BME280;60933;46.398;-63.798;2023-04-05T12:19:41;103019.47;;;-2.31;50.40
66703;BME280;60933;46.398;-63.798;2023-04-05T12:22:08;103008.66;;;-2.29;50.29
66703;BME280;60933;46.398;-63.798;2023-04-05T12:24:34;103016.94;;;-2.18;50.03
66703;BME280;60933;46.398;-63.798;2023-04-05T12:27:00;103013.03;;;-2.13;50.21
66703;BME280;60933;46.398;-63.798;2023-04-05T12:29:26;103009.81;;;-2.10;48.32
66703;BME280;60933;46.398;-63.798;2023-04-05T12:31:52;103028.44;;;-1.96;49.25
66703;BME280;60933;46.398;-63.798;2023-04-05T12:34:23;103018.88;;;-1.87;49.28
66703;BME280;60933;46.398;-63.798;2023-04-05T12:36:52;103019.66;;;-1.75;49.22
66703;BME280;60933;46.398;-63.798;2023-04-05T12:39:20;103020.44;;;-1.76;48.95
66703;BME280;60933;46.398;-63.798;2023-04-05T12:41:58;103031.63;;;-1.72;48.71
66703;BME280;60933;46.398;-63.798;2023-04-05T12:44:29;103026.28;;;-1.77;48.97
66703;BME280;60933;46.398;-63.798;2023-04-05T12:47:02;103028.16;;;-1.74;49.60
66703;BME280;60933;46.398;-63.798;2023-04-05T12:49:38;103012.53;;;-1.67;50.03
66703;BME280;60933;46.398;-63.798;2023-04-05T12:52:04;103008.53;;;-1.63;49.01
66703;BME280;60933;46.398;-63.798;2023-04-05T12:54:33;103013.00;;;-1.46;48.74
66703;BME280;60933;46.398;-63.798;2023-04-05T12:57:01;103009.53;;;-1.33;49.09
66703;BME280;60933;46.398;-63.798;2023-04-05T12:59:29;103017.13;;;-1.19;48.23
66703;BME280;60933;46.398;-63.798;2023-04-05T13:01:55;103021.66;;;-1.14;47.40
66703;BME280;60933;46.398;-63.798;2023-04-05T13:04:21;103014.16;;;-1.12;47.92
66703;BME280;60933;46.398;-63.798;2023-04-05T13:06:47;103016.78;;;-1.10;46.42
66703;BME280;60933;46.398;-63.798;2023-04-05T13:09:13;103030.25;;;-1.12;47.19
66703;BME280;60933;46.398;-63.798;2023-04-05T13:11:39;103023.78;;;-1.06;48.12
66703;BME280;60933;46.398;-63.798;2023-04-05T13:14:05;103016.50;;;-1.15;46.71
66703;BME280;60933;46.398;-63.798;2023-04-05T13:16:31;103007.84;;;-1.19;47.30
66703;BME280;60933;46.398;-63.798;2023-04-05T13:18:57;103003.50;;;-1.06;47.22